createdAt,value
2022-12-06T02:44:27.082Z,9.88
2022-12-06T02:45:35.742Z,9.79
2022-12-06T02:46:38.917Z,10.33
2022-12-06T02:47:42.622Z,11.61
2022-12-06T02:48:47.365Z,9.52
2022-12-06T02:49:50.071Z,10.58
2022-12-06T02:50:55.879Z,10.84
2022-12-06T02:51:58.107Z,10.23
2022-12-06T02:53:04.329Z,9.88
2022-12-06T02:54:08.443Z,10.36
2022-12-06T02:55:12.632Z,9.51
2022-12-06T02:56:17.236Z,11.71
2022-12-06T02:57:23.084Z,11.09
2022-12-06T02:58:25.726Z,9.27
2022-12-06T02:59:27.580Z,8.93
2022-12-06T03:00:36.482Z,9.91
2022-12-06T03:01:42.439Z,9.53
2022-12-06T03:02:45.836Z,11.32
2022-12-06T03:03:57.228Z,10.21
2022-12-06T03:06:51.379Z,10.62
2022-12-06T03:07:54.251Z,12.35
2022-12-06T03:09:08.961Z,10.56
2022-12-06T03:10:18.585Z,10.37
2022-12-06T03:11:21.272Z,11.14
2022-12-06T03:12:32.697Z,13.34
2022-12-06T03:13:53.561Z,9.98
2022-12-06T03:15:00.061Z,11.29
2022-12-06T03:16:27.419Z,11.75
2022-12-06T03:17:48.393Z,10.36
2022-12-06T03:19:03.219Z,11.62
2022-12-06T03:21:22.816Z,10.48
2022-12-06T03:22:40.815Z,9.72
2022-12-06T03:23:46.488Z,10.40
2022-12-06T03:24:50.580Z,9.29
2022-12-06T03:25:56.265Z,10.57
2022-12-06T03:27:01.960Z,10.32
2022-12-06T03:28:06.361Z,11.02
2022-12-06T03:29:09.690Z,9.70
2022-12-06T03:30:15.120Z,12.77
2022-12-06T03:31:17.854Z,12.05
2022-12-06T03:32:23.736Z,9.68
2022-12-06T03:33:28.911Z,9.23
2022-12-06T03:35:51.086Z,9.50
2022-12-06T03:36:57.052Z,11.85
2022-12-06T03:38:05.541Z,11.88
2022-12-06T03:39:09.606Z,10.56
2022-12-06T03:40:22.362Z,9.10
2022-12-06T03:41:31.256Z,11.89
2022-12-06T03:42:33.824Z,11.41
2022-12-06T03:43:35.797Z,12.06
2022-12-06T03:44:37.956Z,11.22
2022-12-06T03:45:58.952Z,13.11
2022-12-06T03:47:07.899Z,11.73
2022-12-06T03:48:22.422Z,13.41
2022-12-06T03:49:28.075Z,11.71
2022-12-06T03:50:43.116Z,11.42
2022-12-06T03:51:46.040Z,11.95
2022-12-06T03:52:51.732Z,12.21
2022-12-06T03:53:59.920Z,14.36
2022-12-06T03:55:02.922Z,8.68
2022-12-06T03:56:05.477Z,9.83
2022-12-06T03:57:08.662Z,13.07
2022-12-06T03:58:11.544Z,14.37
2022-12-06T03:59:13.404Z,10.19
2022-12-06T04:00:16.323Z,11.03
2022-12-06T04:01:18.248Z,10.13
2022-12-06T04:02:20.677Z,10.20
2022-12-06T04:03:22.578Z,13.47
2022-12-06T04:04:24.486Z,13.29
2022-12-06T04:05:26.489Z,9.83
2022-12-06T04:06:28.468Z,8.25
2022-12-06T04:07:30.386Z,11.59
2022-12-06T04:08:32.722Z,13.31
2022-12-06T04:09:34.735Z,11.35
2022-12-06T04:10:37.167Z,10.49
2022-12-06T04:11:39.044Z,10.68
2022-12-06T04:12:40.931Z,9.09
2022-12-06T04:13:42.885Z,10.17
2022-12-06T04:14:44.752Z,14.05
2022-12-06T04:15:47.284Z,11.67
2022-12-06T04:16:49.695Z,10.82
2022-12-06T04:17:51.587Z,10.91
2022-12-06T04:18:54.211Z,10.33
2022-12-06T04:19:56.070Z,11.03
2022-12-06T04:21:03.605Z,8.95
2022-12-06T04:22:05.608Z,9.50
2022-12-06T04:23:07.507Z,10.58
2022-12-06T04:24:09.351Z,12.68
2022-12-06T04:25:11.317Z,10.97
2022-12-06T04:26:19.589Z,13.51
2022-12-06T04:27:21.564Z,13.52
2022-12-06T04:28:23.423Z,13.12
2022-12-06T04:29:25.298Z,13.85
2022-12-06T04:30:27.469Z,12.23
2022-12-06T04:31:30.023Z,14.27
2022-12-06T04:32:32.230Z,9.72
2022-12-06T04:33:34.308Z,12.66
2022-12-06T04:34:36.183Z,13.63
2022-12-06T04:35:38.070Z,12.59
2022-12-06T04:36:40.944Z,11.88
2022-12-06T04:37:42.915Z,10.69
2022-12-06T04:38:44.907Z,11.09
2022-12-06T04:39:46.889Z,9.81
2022-12-06T04:40:48.940Z,9.27
2022-12-06T04:41:51.520Z,11.49
2022-12-06T04:42:53.538Z,12.09
2022-12-06T04:43:55.670Z,11.48
2022-12-06T04:44:57.851Z,13.79
2022-12-06T04:46:00.405Z,13.96
2022-12-06T04:47:02.851Z,12.81
2022-12-06T04:48:06.225Z,13.77
2022-12-06T04:49:08.120Z,14.09
2022-12-06T04:50:10.499Z,11.77
2022-12-06T04:51:12.415Z,12.59
2022-12-06T04:52:14.749Z,12.20
2022-12-06T04:53:17.555Z,12.34
2022-12-06T04:54:20.838Z,14.87
2022-12-06T04:55:22.900Z,13.89
2022-12-06T04:56:24.942Z,11.80
2022-12-06T04:57:26.935Z,14.83
2022-12-06T04:58:28.808Z,13.71
2022-12-06T04:59:30.679Z,13.18
2022-12-06T05:00:32.919Z,15.59
2022-12-06T05:01:34.832Z,20.73
2022-12-06T05:02:36.814Z,17.86
2022-12-06T05:03:43.983Z,15.57
2022-12-06T05:04:42.729Z,16.48
2022-12-06T05:05:44.571Z,14.88
2022-12-06T05:06:47.249Z,13.64
2022-12-06T05:07:49.408Z,16.26
2022-12-06T05:08:52.259Z,15.83
2022-12-06T05:09:54.130Z,12.87
2022-12-06T05:10:57.011Z,15.27
2022-12-06T05:11:58.863Z,14.51
2022-12-06T05:13:00.889Z,13.62
2022-12-06T05:14:02.891Z,11.75
2022-12-06T05:15:06.000Z,14.83
2022-12-06T05:16:08.808Z,13.59
2022-12-06T05:17:10.874Z,12.15
2022-12-06T05:18:12.727Z,11.59
2022-12-06T05:19:15.446Z,14.93
2022-12-06T05:20:18.645Z,12.51
2022-12-06T05:21:22.958Z,14.46
2022-12-06T05:22:24.847Z,16.05
2022-12-06T05:23:26.820Z,12.02
2022-12-06T05:24:28.829Z,14.81
2022-12-06T05:25:30.737Z,11.92
2022-12-06T05:26:33.126Z,11.97
2022-12-06T05:27:36.428Z,13.07
2022-12-06T05:28:40.115Z,13.35
2022-12-06T05:29:42.021Z,12.60
2022-12-06T05:30:44.126Z,16.57
2022-12-06T05:31:46.061Z,14.07
2022-12-06T05:32:52.519Z,13.01
2022-12-06T05:33:54.319Z,13.76
2022-12-06T05:34:56.236Z,13.39
2022-12-06T05:35:58.320Z,14.90
2022-12-06T05:37:00.433Z,11.99
2022-12-06T05:38:02.306Z,13.36
2022-12-06T05:39:04.181Z,14.36
2022-12-06T05:40:07.710Z,15.77
2022-12-06T05:41:11.769Z,15.74
2022-12-06T05:42:22.106Z,18.22
2022-12-06T05:43:17.562Z,20.66
2022-12-06T05:44:19.420Z,16.03
2022-12-06T05:45:22.303Z,18.89
2022-12-06T05:46:24.407Z,17.81
2022-12-06T05:47:26.407Z,21.47
2022-12-06T05:48:28.719Z,19.17
2022-12-06T05:49:30.585Z,18.13
2022-12-06T05:50:34.627Z,19.46
2022-12-06T05:51:36.800Z,18.94
2022-12-06T05:52:38.691Z,17.63
2022-12-06T05:53:41.442Z,17.07
2022-12-06T05:54:43.360Z,16.07
2022-12-06T05:55:46.041Z,19.00
2022-12-06T05:56:51.028Z,17.51
2022-12-06T05:57:53.319Z,18.43
2022-12-06T05:58:55.263Z,18.31
2022-12-06T05:59:57.332Z,16.61
2022-12-06T06:00:59.521Z,15.74
2022-12-06T10:28:46.128Z,13.43
2022-12-06T10:31:21.891Z,18.36
2022-12-06T10:32:40.011Z,13.97
2022-12-06T10:33:51.937Z,15.03
2022-12-06T10:34:57.501Z,13.17
2022-12-06T10:36:06.008Z,11.72
2022-12-06T10:37:31.671Z,14.63
2022-12-06T10:38:43.590Z,16.01
2022-12-06T10:39:55.304Z,14.18
2022-12-06T10:41:06.726Z,14.08
2022-12-06T10:42:15.188Z,15.13
2022-12-06T10:43:24.450Z,12.89
2022-12-06T10:44:33.174Z,14.48
2022-12-06T10:45:38.912Z,15.18
2022-12-06T10:47:06.396Z,15.63
2022-12-06T10:50:35.980Z,12.65
2022-12-06T10:51:41.643Z,13.81
2022-12-06T10:52:57.205Z,15.68
2022-12-06T10:54:00.986Z,14.58
2022-12-06T10:55:12.878Z,14.60
2022-12-06T10:56:21.447Z,13.21
2022-12-06T10:57:29.644Z,14.58
2022-12-06T10:58:44.567Z,14.97
2022-12-06T10:59:50.252Z,12.86
2022-12-06T11:01:01.601Z,12.19
2022-12-06T11:03:41.893Z,14.49
2022-12-06T11:04:47.735Z,13.43
2022-12-06T11:06:19.818Z,12.40
2022-12-06T11:07:25.601Z,10.54
2022-12-06T11:08:40.278Z,12.31
2022-12-06T11:09:54.509Z,16.57
2022-12-06T11:10:58.657Z,14.94
2022-12-06T11:12:02.952Z,12.33
2022-12-06T11:13:42.168Z,14.18
2022-12-06T11:14:47.969Z,17.98
2022-12-06T11:15:56.613Z,14.40
2022-12-06T11:17:17.246Z,13.23
2022-12-06T11:18:20.038Z,12.09
2022-12-06T11:19:35.005Z,14.60
2022-12-06T11:20:40.746Z,14.20
2022-12-06T11:21:46.408Z,17.38
2022-12-06T11:22:58.343Z,14.69
2022-12-06T11:24:22.432Z,14.98
2022-12-06T11:25:28.089Z,11.48
2022-12-06T11:26:45.880Z,11.81
2022-12-06T11:27:51.546Z,13.78
2022-12-06T11:28:59.299Z,13.36
2022-12-06T11:30:03.838Z,13.60
2022-12-06T11:32:21.745Z,12.34
2022-12-06T11:33:27.337Z,11.47
2022-12-06T11:34:37.500Z,11.71
2022-12-06T11:35:40.102Z,14.97
2022-12-06T11:36:43.800Z,14.09
2022-12-06T11:37:48.306Z,16.71
2022-12-06T11:38:50.847Z,12.92
2022-12-06T11:40:13.448Z,11.55
2022-12-06T11:41:19.100Z,11.08
2022-12-06T11:42:26.638Z,11.93
2022-12-06T11:43:31.756Z,15.59
2022-12-06T11:45:01.128Z,11.62
2022-12-06T11:45:55.645Z,14.16
2022-12-06T11:47:01.466Z,12.44
2022-12-06T11:48:16.585Z,13.23
2022-12-06T11:49:31.559Z,12.94
2022-12-06T11:50:37.204Z,13.86
2022-12-06T11:51:39.135Z,11.52
2022-12-06T11:52:50.503Z,12.22
2022-12-06T11:55:23.799Z,14.09
2022-12-06T11:56:29.670Z,15.43
2022-12-06T11:57:41.118Z,13.26
2022-12-06T11:59:01.916Z,13.66
2022-12-06T12:00:16.730Z,12.53
2022-12-06T12:01:18.777Z,12.35
2022-12-06T12:02:31.279Z,14.03
2022-12-06T12:03:35.988Z,16.08
2022-12-06T12:04:41.091Z,13.79
2022-12-06T12:05:42.984Z,12.36
2022-12-06T12:06:46.241Z,12.65
2022-12-06T12:07:52.133Z,11.48
2022-12-06T12:08:57.766Z,14.80
2022-12-06T12:10:02.865Z,10.95
2022-12-06T12:11:06.873Z,14.88
2022-12-06T12:12:18.590Z,13.12
2022-12-06T12:13:21.487Z,13.79
2022-12-06T12:14:27.228Z,16.04
2022-12-06T12:15:29.301Z,13.47
2022-12-06T12:16:38.021Z,13.29
2022-12-06T12:17:44.432Z,14.79
2022-12-06T12:18:59.570Z,13.61
2022-12-06T12:20:05.342Z,12.94
2022-12-06T12:21:07.824Z,14.23
2022-12-06T12:22:28.542Z,12.34
2022-12-06T12:23:37.560Z,12.53
2022-12-06T12:26:17.575Z,13.49
2022-12-06T12:27:38.011Z,11.83
2022-12-06T12:28:42.097Z,11.07
2022-12-06T12:29:44.145Z,13.21
2022-12-06T12:30:55.596Z,12.17
2022-12-06T12:31:58.912Z,12.33
2022-12-06T12:33:07.590Z,13.18
2022-12-06T12:34:16.215Z,13.54
2022-12-06T12:35:24.591Z,11.08
2022-12-06T12:36:28.645Z,15.03
2022-12-06T12:37:30.636Z,12.30
2022-12-06T12:38:44.856Z,15.95
2022-12-06T12:42:04.815Z,12.89
2022-12-06T12:43:16.674Z,20.41
2022-12-06T12:44:37.624Z,17.42
2022-12-06T12:45:32.864Z,13.88
2022-12-06T12:46:36.057Z,14.64
2022-12-06T12:47:37.984Z,16.78
2022-12-06T12:48:43.142Z,14.45
2022-12-06T12:50:06.758Z,16.33
2022-12-06T12:51:33.184Z,15.41
2022-12-06T12:52:39.864Z,15.88
2022-12-06T12:53:42.948Z,16.41
2022-12-06T12:55:01.318Z,17.52
2022-12-06T12:56:16.478Z,14.94
2022-12-06T12:57:18.396Z,14.42
2022-12-06T12:58:21.088Z,15.09
2022-12-06T12:59:28.546Z,14.08
2022-12-06T13:00:37.059Z,14.82
2022-12-06T13:01:59.528Z,14.36
2022-12-06T13:03:14.207Z,12.27
2022-12-06T13:04:24.099Z,12.66
2022-12-06T13:05:35.936Z,17.12
2022-12-06T13:06:43.364Z,16.68
2022-12-06T13:07:48.752Z,14.02
2022-12-06T13:08:51.883Z,15.09
2022-12-06T13:10:00.280Z,18.29
2022-12-06T13:11:04.727Z,15.49
2022-12-06T13:12:16.404Z,17.02
2022-12-06T13:13:27.792Z,13.06
2022-12-06T13:14:34.153Z,15.76
2022-12-06T13:15:44.979Z,18.13
2022-12-06T13:16:50.833Z,18.36
2022-12-06T13:17:59.787Z,15.24
2022-12-06T13:19:01.574Z,15.24
2022-12-06T13:20:24.108Z,16.37
2022-12-06T13:21:40.620Z,14.35
2022-12-06T13:22:43.375Z,15.08
2022-12-06T13:23:48.752Z,18.19
2022-12-06T13:27:11.235Z,16.61
2022-12-06T13:28:22.779Z,19.41
2022-12-06T13:29:43.581Z,19.52
2022-12-06T13:30:48.922Z,17.36
2022-12-06T13:31:54.185Z,16.02
2022-12-06T13:33:02.391Z,17.38
2022-12-06T13:34:08.153Z,17.93
2022-12-06T13:35:21.135Z,13.52
2022-12-06T13:36:24.407Z,14.54
2022-12-06T13:37:39.235Z,16.32
2022-12-06T13:38:42.129Z,13.77
2022-12-06T13:39:48.627Z,14.73
2022-12-06T13:41:01.554Z,16.41
2022-12-06T13:42:06.917Z,15.37
2022-12-06T13:43:27.715Z,14.44
2022-12-06T13:44:55.114Z,11.36
2022-12-06T13:46:09.946Z,14.16
2022-12-06T13:47:31.258Z,14.89
2022-12-06T13:48:40.023Z,17.06
2022-12-06T13:49:48.601Z,18.17
2022-12-06T13:50:51.303Z,17.86
2022-12-06T13:51:53.391Z,19.75
2022-12-06T13:53:00.384Z,20.15
2022-12-06T13:54:06.062Z,18.82
2022-12-06T13:55:29.779Z,18.85
2022-12-06T13:56:36.577Z,19.34
2022-12-06T13:57:38.923Z,19.80
2022-12-06T13:58:43.430Z,17.32
2022-12-06T13:59:45.352Z,19.13
2022-12-06T14:00:49.465Z,18.01
2022-12-06T14:01:55.251Z,18.42
2022-12-06T14:03:09.629Z,18.56
2022-12-06T14:08:13.735Z,20.07
2022-12-06T14:09:15.703Z,22.63
2022-12-06T14:10:17.969Z,20.00
2022-12-06T14:11:28.720Z,20.32
2022-12-06T14:12:30.643Z,18.88
2022-12-06T14:13:33.002Z,22.15
2022-12-06T14:14:35.332Z,19.43
2022-12-06T14:15:38.131Z,23.30
2022-12-06T14:16:43.912Z,15.74
2022-12-06T14:18:03.066Z,18.87
2022-12-06T14:18:50.531Z,19.03
2022-12-06T14:19:53.836Z,17.73
2022-12-06T14:20:57.541Z,18.32
2022-12-06T14:22:02.397Z,22.03
2022-12-06T14:23:08.079Z,22.00
2022-12-06T14:24:33.473Z,22.64
2022-12-06T14:25:35.355Z,22.63
2022-12-06T14:26:37.511Z,25.83
2022-12-06T14:27:42.767Z,24.29
2022-12-06T14:28:45.811Z,27.52
2022-12-06T14:30:25.499Z,26.08
2022-12-06T18:14:58.916Z,32.64
2022-12-06T18:16:03.944Z,35.79
2022-12-06T18:17:06.191Z,30.76
2022-12-06T18:18:08.197Z,33.14
2022-12-06T18:19:13.040Z,31.08
2022-12-06T18:20:17.206Z,29.69
2022-12-06T18:21:19.757Z,30.30
2022-12-06T18:22:21.960Z,30.12
2022-12-06T18:23:23.926Z,31.83
2022-12-06T18:24:30.577Z,30.59
2022-12-06T18:25:29.628Z,29.66
2022-12-06T18:26:32.007Z,29.45
2022-12-06T18:27:33.971Z,29.78
2022-12-06T18:28:36.394Z,38.20
2022-12-06T18:29:38.301Z,30.02
2022-12-06T18:30:40.367Z,32.54
2022-12-06T18:31:42.265Z,32.77
2022-12-06T18:32:44.402Z,30.27
2022-12-06T18:33:46.692Z,34.21
2022-12-06T18:34:48.594Z,30.97
2022-12-06T18:35:51.664Z,29.09
2022-12-06T18:36:54.304Z,29.26
2022-12-06T18:37:58.982Z,26.01
2022-12-06T18:39:04.134Z,29.08
2022-12-06T18:40:07.769Z,26.56
2022-12-06T18:41:12.621Z,28.46
2022-12-06T18:42:14.631Z,27.91
2022-12-06T18:43:16.490Z,28.61
2022-12-06T18:44:18.763Z,24.43
2022-12-06T18:45:20.686Z,24.94
2022-12-06T18:46:24.471Z,24.00
2022-12-06T18:47:26.520Z,28.95
2022-12-06T18:48:29.121Z,27.69
2022-12-06T18:49:31.008Z,30.53
2022-12-06T18:50:33.359Z,31.59
2022-12-06T18:51:35.514Z,28.27
2022-12-06T18:52:37.424Z,31.30
2022-12-06T18:53:39.278Z,35.39
2022-12-06T18:54:41.125Z,32.99
2022-12-06T18:55:43.190Z,30.21
2022-12-06T18:56:45.571Z,27.76
2022-12-06T18:57:47.421Z,37.30
2022-12-06T18:58:49.446Z,30.31
2022-12-06T18:59:51.377Z,29.31
2022-12-06T19:00:53.590Z,28.01
2022-12-06T19:01:55.774Z,27.24
2022-12-06T19:02:59.333Z,24.59
2022-12-06T19:04:02.855Z,25.54
2022-12-06T19:05:06.620Z,27.78
2022-12-06T19:06:15.288Z,27.51
2022-12-06T19:07:20.553Z,25.41
2022-12-06T19:08:21.036Z,25.62
2022-12-06T19:09:22.954Z,22.95
2022-12-06T19:10:25.164Z,23.55
2022-12-06T19:11:27.269Z,24.74
2022-12-06T19:12:29.204Z,22.97
2022-12-06T19:13:31.086Z,22.30
2022-12-06T19:14:34.558Z,20.37
2022-12-06T19:15:37.201Z,24.59
2022-12-06T19:16:46.063Z,24.22
2022-12-06T19:17:51.499Z,24.66
2022-12-06T19:18:56.033Z,24.68
2022-12-06T19:19:58.375Z,26.73
2022-12-06T19:21:00.917Z,25.31
2022-12-06T19:22:05.304Z,21.42
2022-12-06T19:23:07.209Z,22.70
2022-12-06T19:24:10.946Z,24.35
2022-12-06T19:25:13.194Z,24.17
2022-12-06T19:26:15.448Z,20.83
2022-12-06T19:27:20.491Z,22.94
2022-12-06T19:28:21.277Z,25.34
2022-12-06T19:29:24.580Z,23.64
2022-12-06T19:30:26.662Z,26.77
2022-12-06T19:31:29.950Z,23.78
2022-12-06T19:32:32.961Z,26.79
2022-12-06T19:33:37.300Z,21.39
2022-12-06T19:34:39.229Z,22.92
2022-12-06T19:35:41.132Z,21.51
2022-12-06T19:36:44.460Z,21.35
2022-12-06T19:37:46.357Z,23.39
2022-12-06T19:38:50.963Z,24.53
2022-12-06T19:39:52.953Z,24.94
2022-12-06T19:40:55.531Z,28.33
2022-12-06T19:41:57.588Z,27.25
2022-12-06T19:42:59.460Z,26.51
2022-12-06T19:44:01.329Z,25.82
2022-12-06T19:45:05.677Z,24.53
2022-12-06T19:46:11.322Z,22.97
2022-12-06T19:47:14.630Z,22.92
2022-12-06T19:48:17.270Z,26.11
2022-12-06T19:49:21.902Z,24.72
2022-12-06T19:50:23.912Z,27.24
2022-12-06T19:51:26.407Z,27.65
2022-12-06T19:52:31.022Z,23.04
2022-12-06T19:54:45.171Z,25.79
2022-12-06T19:55:47.039Z,27.27
2022-12-06T19:56:50.960Z,27.50
2022-12-06T19:57:52.851Z,24.94
2022-12-06T19:58:57.301Z,27.16
2022-12-06T19:59:59.501Z,26.52
2022-12-06T20:01:16.782Z,31.81
2022-12-06T20:02:18.955Z,27.74
2022-12-06T20:03:20.963Z,32.21
2022-12-06T20:04:26.194Z,31.98
2022-12-06T20:05:28.098Z,34.12
2022-12-06T20:06:31.421Z,34.11
2022-12-06T20:07:33.376Z,31.77
2022-12-06T20:08:35.455Z,32.79
2022-12-06T20:09:37.459Z,29.10
2022-12-06T20:10:41.984Z,28.17
2022-12-06T20:11:45.277Z,29.79
2022-12-06T20:12:47.282Z,31.92
2022-12-06T20:13:49.141Z,27.06
2022-12-06T20:14:51.388Z,28.01
2022-12-06T20:15:53.305Z,28.70
2022-12-06T20:16:56.160Z,28.74
2022-12-06T20:17:58.906Z,26.07
2022-12-06T20:19:00.926Z,25.68
2022-12-06T20:20:06.314Z,28.80
2022-12-06T20:21:08.208Z,27.71
2022-12-06T20:22:11.553Z,25.23
2022-12-06T20:23:13.441Z,24.16
2022-12-06T20:24:18.521Z,28.57
2022-12-06T20:25:20.442Z,27.67
2022-12-06T20:26:22.814Z,26.41
2022-12-06T20:27:24.698Z,26.87
2022-12-06T20:28:26.575Z,25.37
2022-12-06T20:29:28.605Z,26.81
2022-12-06T20:30:30.917Z,25.65
2022-12-06T20:31:33.368Z,22.85
2022-12-06T20:32:35.472Z,25.99
2022-12-06T20:33:38.223Z,20.83
2022-12-06T20:34:40.259Z,22.46
2022-12-06T20:35:42.539Z,29.05
2022-12-06T20:36:48.258Z,22.81
2022-12-06T20:37:50.278Z,25.74
2022-12-06T20:38:54.294Z,24.25
2022-12-06T20:39:56.181Z,22.83
2022-12-06T20:40:58.145Z,25.67
2022-12-06T20:42:01.963Z,22.85
2022-12-06T20:43:03.985Z,24.14
2022-12-06T20:44:05.899Z,24.13
2022-12-06T20:45:08.800Z,25.81
2022-12-06T20:46:16.176Z,23.58
2022-12-06T20:47:19.515Z,23.91
2022-12-06T20:48:21.719Z,20.02
2022-12-06T20:49:23.802Z,23.89
2022-12-06T20:50:25.887Z,22.16
2022-12-06T20:51:29.570Z,21.85
2022-12-06T20:52:31.555Z,24.74
2022-12-06T20:53:34.757Z,22.39
2022-12-06T20:54:37.786Z,22.05
2022-12-06T20:55:39.741Z,26.50
2022-12-06T20:56:42.152Z,25.33
2022-12-06T20:57:44.117Z,25.47
2022-12-06T20:58:49.789Z,32.70
2022-12-06T20:59:51.930Z,30.15
2022-12-06T21:00:54.246Z,27.85
2022-12-06T21:01:56.141Z,29.91
2022-12-06T21:02:58.167Z,26.42
2022-12-06T21:04:00.879Z,27.97
2022-12-06T21:05:03.531Z,26.42
2022-12-06T21:06:08.501Z,25.99
2022-12-06T21:07:10.457Z,25.11
2022-12-06T21:08:12.441Z,26.13
2022-12-06T21:09:14.623Z,22.54
2022-12-06T21:10:17.428Z,27.71
2022-12-06T21:11:23.543Z,23.97
2022-12-06T21:12:26.010Z,24.09
2022-12-06T21:13:27.903Z,22.81
2022-12-06T21:14:29.908Z,24.15
2022-12-06T21:15:31.852Z,27.93
2022-12-06T21:16:35.571Z,28.11
2022-12-06T21:17:37.677Z,26.31
2022-12-06T21:18:42.044Z,27.55
2022-12-06T21:19:43.965Z,26.20
2022-12-06T21:20:46.981Z,30.65
2022-12-06T21:21:51.312Z,27.39
2022-12-06T21:22:53.311Z,27.79
2022-12-06T21:24:01.001Z,31.33
2022-12-06T21:25:05.120Z,34.20
2022-12-06T21:26:08.638Z,26.99
2022-12-06T21:27:10.597Z,25.61
2022-12-06T21:28:12.489Z,24.60
2022-12-06T21:29:20.855Z,24.61
2022-12-06T21:30:23.519Z,28.97
2022-12-06T21:31:28.146Z,26.42
2022-12-06T21:32:30.342Z,25.12
2022-12-06T21:33:32.226Z,24.90
2022-12-06T21:34:34.109Z,27.75
2022-12-06T21:35:36.860Z,30.93
2022-12-06T21:36:39.442Z,26.05
2022-12-06T21:37:41.312Z,24.78
2022-12-06T21:38:43.499Z,30.16
2022-12-06T21:39:45.876Z,26.42
2022-12-06T21:40:53.010Z,26.26
2022-12-06T21:41:51.676Z,28.13
2022-12-06T21:42:53.557Z,28.25
2022-12-06T21:43:55.508Z,25.98
2022-12-06T21:44:57.366Z,24.43
2022-12-06T21:46:10.936Z,25.63
2022-12-06T21:47:12.919Z,27.55
2022-12-06T21:48:14.795Z,25.23
2022-12-06T21:49:16.965Z,25.33
2022-12-06T21:50:19.043Z,23.38
2022-12-06T21:51:22.340Z,20.45
2022-12-06T21:52:24.354Z,20.92
2022-12-06T21:53:26.840Z,22.35
2022-12-06T21:54:28.721Z,21.85
2022-12-06T21:55:30.640Z,20.64
2022-12-06T21:56:32.717Z,21.98
2022-12-06T21:57:35.376Z,22.80
2022-12-06T21:58:40.411Z,20.03
2022-12-06T21:59:42.306Z,20.27
2022-12-06T22:00:44.502Z,19.02
2022-12-06T22:01:49.582Z,18.17
2022-12-06T22:02:52.210Z,20.86
2022-12-06T22:03:57.511Z,20.00
2022-12-06T22:05:00.703Z,19.86
2022-12-06T22:06:08.681Z,23.93
2022-12-06T22:07:11.290Z,23.38
2022-12-06T22:08:13.211Z,27.33
2022-12-06T22:09:15.251Z,28.35
2022-12-06T22:10:17.713Z,30.25
2022-12-06T22:11:19.787Z,31.05
2022-12-06T22:12:21.639Z,26.41
2022-12-06T22:13:23.622Z,26.98
2022-12-06T22:14:25.869Z,26.33
2022-12-06T22:15:27.757Z,27.53
2022-12-06T22:16:30.297Z,28.25
